Dundas, Canada
Current Conditions -  °F | °C
As of 6:00 PM on Tuesday 25 Nov 2014 (Local Time) from CYHM Reporting Station
Overcast Overcast  
Wind Chill: 22°   Ceiling: 3700
Heat Index: 32°   Visibility: 10mi
Dew Point: 25°   Wind: 14mph
Humidity: 75%   Direction: 240°WSW
Pressure: 30.06"   Gusts: 24mph
Location:  43.27°N, 79.93°W
Report Text: CYHM 252300Z 24012G21KT 10SM OVC037 00/M04 A3006 RMK SC8 SLP187
Loading
Personal Weather Stations






























Interactive Weather Map New forecast layout! Learn more

10-Day Weather Forecast

Advertisements
Track Severe Weather on mobile